Time;durP1;ratioP1;P1;durP2;ratioP2;P2;SDS_P1;SDS_P2;PMS_P1;PMS_P2;Temp;Humidity;BMP_temperature;BMP_pressure;BME280_temperature;BME280_humidity;BME280_pressure;Samples;Min_cycle;Max_cycle;Signal;HPM_P1;HPM_P2
2023/05/27 00:02:11;;;;;;;13.60;4.20;;;;;;;12.21;62.07;102815.72;5054914;28;20104;-62
2023/05/27 00:04:37;;;;;;;14.40;4.10;;;;;;;12.18;62.83;102810.28;5055209;28;20036;-62
2023/05/27 00:07:02;;;;;;;13.80;3.85;;;;;;;12.13;62.19;102811.88;5055088;28;20118;-62
2023/05/27 00:09:28;;;;;;;16.50;4.10;;;;;;;12.15;61.83;102815.47;5054972;28;20121;-62
2023/05/27 00:11:53;;;;;;;15.65;4.20;;;;;;;12.11;62.85;102813.56;5054893;28;20068;-62
2023/05/27 00:14:20;;;;;;;18.00;4.05;;;;;;;12.09;62.34;102812.63;5054845;28;20119;-62
2023/05/27 00:16:46;;;;;;;13.27;4.28;;;;;;;12.11;62.60;102814.47;5055056;28;20029;-62
2023/05/27 00:19:11;;;;;;;16.85;4.10;;;;;;;12.03;62.35;102818.56;5054636;28;20038;-62
2023/05/27 00:21:37;;;;;;;18.75;4.28;;;;;;;12.03;62.45;102813.28;5054680;28;20029;-62
2023/05/27 00:24:03;;;;;;;15.60;4.25;;;;;;;11.98;62.77;102809.56;5054566;28;20032;-62
2023/05/27 00:26:28;;;;;;;14.27;4.00;;;;;;;11.98;62.29;102806.91;5054357;28;20029;-64
2023/05/27 00:28:54;;;;;;;14.65;3.90;;;;;;;11.97;62.70;102805.13;5054353;28;20025;-62
2023/05/27 00:31:19;;;;;;;15.80;4.20;;;;;;;11.99;62.34;102814.00;5054573;28;20029;-62
2023/05/27 00:33:45;;;;;;;15.55;3.78;;;;;;;11.94;62.20;102803.25;5054686;28;20124;-63
2023/05/27 00:36:10;;;;;;;12.85;4.03;;;;;;;11.88;62.99;102800.38;5054571;28;20502;-62
2023/05/27 00:38:36;;;;;;;12.20;3.75;;;;;;;11.91;62.39;102803.16;5054357;28;20368;-62
2023/05/27 00:41:03;;;;;;;17.90;4.00;;;;;;;11.91;62.64;102800.50;5054355;28;20057;-62
2023/05/27 00:43:30;;;;;;;15.73;3.75;;;;;;;11.87;62.60;102803.00;5036206;28;20475;-62
2023/05/27 00:45:56;;;;;;;12.10;3.90;;;;;;;11.84;62.88;102800.22;5054262;28;20071;-62
2023/05/27 00:48:22;;;;;;;15.05;3.80;;;;;;;11.84;63.11;102797.56;5054123;28;20070;-62
2023/05/27 00:50:47;;;;;;;16.92;4.00;;;;;;;11.81;63.03;102805.34;5053983;28;20065;-62
2023/05/27 00:53:13;;;;;;;11.73;4.15;;;;;;;11.72;63.50;102798.88;5054240;28;20032;-62
2023/05/27 00:55:38;;;;;;;12.98;4.22;;;;;;;11.68;63.70;102796.97;5054222;28;20116;-62
2023/05/27 00:58:04;;;;;;;13.38;3.67;;;;;;;11.71;63.71;102798.81;5053759;28;20114;-63
2023/05/27 01:00:31;;;;;;;10.18;3.78;;;;;;;11.71;63.18;102790.88;5053730;28;20021;-62
2023/05/27 01:02:57;;;;;;;14.85;4.20;;;;;;;11.71;63.64;102799.72;5053846;28;20121;-62
2023/05/27 01:05:23;;;;;;;17.30;4.13;;;;;;;11.69;63.22;102792.56;5035975;28;20112;-62
2023/05/27 01:08:11;;;;;;;16.25;4.18;;;;;;;11.65;64.16;102788.91;5053956;28;20174;-62
2023/05/27 01:10:43;;;;;;;10.60;3.70;;;;;;;11.56;64.11;102782.34;5053929;28;20029;-62
2023/05/27 01:13:17;;;;;;;15.75;4.25;;;;;;;11.56;63.93;102779.69;5053700;28;20022;-62
2023/05/27 01:15:43;;;;;;;11.20;3.40;;;;;;;11.51;65.25;102782.19;5053938;28;20033;-61
2023/05/27 01:18:12;;;;;;;11.55;4.03;;;;;;;11.43;64.45;102789.81;5053627;28;20052;-62
2023/05/27 01:20:40;;;;;;;10.88;3.83;;;;;;;11.43;64.85;102788.94;5053611;28;20028;-63
2023/05/27 01:23:07;;;;;;;14.75;4.20;;;;;;;11.39;64.31;102779.06;5053186;28;20029;-62
2023/05/27 01:25:33;;;;;;;15.02;4.13;;;;;;;11.38;64.76;102779.91;5053590;28;20033;-62
2023/05/27 01:27:58;;;;;;;16.98;4.15;;;;;;;11.32;65.41;102779.69;5053338;28;20056;-62
2023/05/27 01:30:24;;;;;;;10.23;3.83;;;;;;;11.28;64.73;102776.91;5035191;28;20083;-62
2023/05/27 01:32:51;;;;;;;14.90;3.90;;;;;;;11.27;65.86;102777.75;5053535;28;20033;-62
2023/05/27 01:35:50;;;;;;;12.73;4.07;;;;;;;11.23;65.19;102775.84;5053178;28;20474;-63
2023/05/27 01:38:18;;;;;;;14.23;3.95;;;;;;;11.22;65.03;102781.06;5053262;28;20032;-62
2023/05/27 01:40:44;;;;;;;17.38;4.32;;;;;;;11.16;65.63;102776.44;5053267;28;20037;-63
2023/05/27 01:43:11;;;;;;;12.27;4.22;;;;;;;11.18;65.40;102774.75;5053338;28;20175;-61
2023/05/27 01:45:37;;;;;;;12.45;4.13;;;;;;;11.24;65.50;102777.63;5053110;28;20029;-63
2023/05/27 01:48:03;;;;;;;14.38;4.65;;;;;;;11.21;65.58;102764.28;5053164;28;20035;-62
2023/05/27 01:50:30;;;;;;;14.40;4.40;;;;;;;11.36;64.68;102765.72;5052881;28;20047;-62
2023/05/27 01:52:56;;;;;;;12.50;3.85;;;;;;;11.41;64.66;102761.50;5052982;28;20514;-62
2023/05/27 01:55:22;;;;;;;12.68;4.13;;;;;;;11.35;64.94;102771.84;5053152;28;20029;-62
2023/05/27 01:57:47;;;;;;;14.00;4.55;;;;;;;11.33;64.81;102760.31;5052584;28;20041;-62
2023/05/27 02:00:15;;;;;;;11.38;3.90;;;;;;;11.26;64.99;102765.38;5052627;28;20072;-62
2023/05/27 02:02:41;;;;;;;14.20;4.22;;;;;;;11.17;64.98;102767.63;5053150;28;20094;-62
2023/05/27 02:05:07;;;;;;;17.42;4.60;;;;;;;11.16;65.80;102755.25;5053062;28;20483;-62
2023/05/27 02:07:32;;;;;;;18.83;4.35;;;;;;;11.06;65.93;102757.50;5053007;28;20029;-62
2023/05/27 02:09:58;;;;;;;17.25;4.43;;;;;;;10.98;65.93;102758.09;5052660;28;20470;-62
2023/05/27 02:12:23;;;;;;;18.98;4.80;;;;;;;10.94;65.80;102758.81;5034979;28;20036;-62
2023/05/27 02:14:49;;;;;;;13.23;4.32;;;;;;;11.01;66.84;102759.97;5052578;28;20557;-62
2023/05/27 02:17:14;;;;;;;12.13;4.15;;;;;;;10.97;67.00;102765.97;5052947;28;20033;-62
2023/05/27 02:19:40;;;;;;;13.40;3.88;;;;;;;10.90;67.19;102764.81;5052795;28;20429;-62
2023/05/27 02:22:06;;;;;;;10.75;4.05;;;;;;;10.78;67.57;102759.94;5052673;28;20034;-62
2023/05/27 02:24:32;;;;;;;12.95;4.13;;;;;;;10.71;67.88;102771.13;5052643;28;20398;-62
2023/05/27 02:26:58;;;;;;;14.20;4.50;;;;;;;10.66;67.35;102774.38;5052583;28;20032;-61
2023/05/27 02:29:23;;;;;;;14.20;4.15;;;;;;;10.63;67.89;102771.63;5052343;28;20029;-62
2023/05/27 02:31:48;;;;;;;15.68;4.53;;;;;;;10.60;68.57;102769.75;5052392;28;20041;-62
2023/05/27 02:34:14;;;;;;;17.35;4.88;;;;;;;10.57;68.49;102772.25;5052621;28;20025;-62
2023/05/27 02:36:40;;;;;;;13.45;4.32;;;;;;;10.60;68.07;102760.94;5055791;28;20032;-62
2023/05/27 02:39:06;;;;;;;13.32;4.07;;;;;;;10.58;68.14;102773.16;5038606;28;20437;-62
2023/05/27 02:41:31;;;;;;;13.18;4.60;;;;;;;10.59;68.23;102773.25;5056310;28;20060;-62
2023/05/27 02:43:56;;;;;;;14.05;4.30;;;;;;;10.57;68.19;102777.56;5056300;28;20055;-62
2023/05/27 02:46:22;;;;;;;15.32;4.25;;;;;;;10.60;68.87;102779.44;5056422;28;20037;-62
2023/05/27 02:48:47;;;;;;;19.02;4.90;;;;;;;10.55;68.84;102771.31;5038589;28;20105;-62
2023/05/27 02:51:13;;;;;;;12.65;4.60;;;;;;;10.54;69.62;102772.16;5038716;28;20075;-62
2023/05/27 02:53:38;;;;;;;14.05;4.32;;;;;;;10.48;69.16;102771.88;5056227;28;20215;-62
2023/05/27 02:56:04;;;;;;;13.45;4.20;;;;;;;10.40;69.54;102774.19;5056188;28;20031;-62
2023/05/27 02:58:29;;;;;;;14.88;4.25;;;;;;;10.36;70.02;102776.66;5055787;28;20613;-62
2023/05/27 03:00:55;;;;;;;18.75;4.50;;;;;;;10.34;69.76;102778.34;5055904;28;20032;-62
2023/05/27 03:03:21;;;;;;;14.68;4.32;;;;;;;10.37;69.46;102776.75;5056125;28;20029;-62
2023/05/27 03:05:47;;;;;;;11.15;4.30;;;;;;;10.32;69.53;102785.28;5056161;28;20036;-63
2023/05/27 03:08:12;;;;;;;15.35;4.40;;;;;;;10.35;69.85;102788.97;5056084;28;20029;-63
2023/05/27 03:10:38;;;;;;;20.02;4.90;;;;;;;10.34;69.57;102788.91;5056195;28;20025;-62
2023/05/27 03:13:03;;;;;;;12.75;4.25;;;;;;;10.38;70.17;102785.56;5055859;28;20407;-62
2023/05/27 03:15:29;;;;;;;16.65;4.72;;;;;;;10.34;69.86;102786.28;5055784;28;20029;-62
2023/05/27 03:17:56;;;;;;;14.63;4.43;;;;;;;10.24;70.55;102791.16;5055844;28;20055;-62
2023/05/27 03:20:21;;;;;;;13.55;4.47;;;;;;;10.18;69.90;102789.94;5037958;28;20029;-62
2023/05/27 03:22:47;;;;;;;14.43;4.63;;;;;;;10.19;70.20;102784.75;5055828;28;20484;-62
2023/05/27 03:25:13;;;;;;;17.98;4.03;;;;;;;10.13;70.34;102787.09;5055831;28;20028;-62
2023/05/27 03:27:40;;;;;;;16.10;4.28;;;;;;;10.13;70.91;102786.19;5055629;28;20520;-62
2023/05/27 03:30:07;;;;;;;17.75;4.85;;;;;;;10.05;71.03;102772.66;5037667;28;20098;-62
2023/05/27 03:32:32;;;;;;;16.45;4.45;;;;;;;10.07;71.05;102784.22;5055587;28;20025;-62
2023/05/27 03:34:58;;;;;;;15.98;4.50;;;;;;;10.02;71.62;102775.16;5055759;28;20025;-61
2023/05/27 03:37:23;;;;;;;16.23;4.80;;;;;;;9.99;71.65;102775.03;5055545;28;20395;-62
2023/05/27 03:39:48;;;;;;;14.65;4.40;;;;;;;9.95;71.92;102774.00;5055542;28;20033;-62
2023/05/27 03:42:14;;;;;;;13.85;4.45;;;;;;;9.95;71.86;102768.72;5055407;28;20520;-62
2023/05/27 03:44:39;;;;;;;16.85;4.70;;;;;;;9.99;71.89;102767.13;5055355;28;20029;-62
2023/05/27 03:47:05;;;;;;;12.85;4.43;;;;;;;9.97;71.80;102763.50;5054971;28;20021;-62
2023/05/27 03:49:31;;;;;;;15.82;4.35;;;;;;;9.97;71.98;102760.84;5055354;28;20382;-62
2023/05/27 03:51:56;;;;;;;14.23;4.40;;;;;;;9.99;71.90;102764.47;5055078;28;20025;-62
2023/05/27 03:54:22;;;;;;;14.77;4.53;;;;;;;9.98;71.83;102760.03;5037236;28;20032;-62
2023/05/27 03:56:47;;;;;;;18.55;4.60;;;;;;;9.90;72.67;102754.41;5054989;28;20040;-62
2023/05/27 03:59:13;;;;;;;14.07;4.55;;;;;;;9.88;72.39;102760.44;5036865;28;20083;-62
2023/05/27 04:01:39;;;;;;;13.88;4.35;;;;;;;9.86;72.52;102751.56;5037235;28;20041;-62
2023/05/27 04:04:05;;;;;;;14.85;4.57;;;;;;;9.88;72.38;102744.59;5055295;28;20025;-62
2023/05/27 04:06:31;;;;;;;14.60;4.53;;;;;;;9.90;72.63;102758.78;5054993;28;20478;-62
2023/05/27 04:08:57;;;;;;;16.48;4.75;;;;;;;9.94;72.41;102752.81;5054853;28;20387;-62
2023/05/27 04:11:23;;;;;;;16.38;5.00;;;;;;;9.94;72.54;102759.00;5054788;28;20029;-63
2023/05/27 04:13:48;;;;;;;17.63;5.05;;;;;;;9.92;73.14;102758.00;5037028;28;20056;-62
2023/05/27 04:16:15;;;;;;;16.95;4.88;;;;;;;9.88;73.03;102757.81;5054735;28;20487;-62
2023/05/27 04:18:40;;;;;;;15.90;4.88;;;;;;;9.86;73.20;102755.13;5054726;28;20021;-62
2023/05/27 04:21:08;;;;;;;14.82;4.85;;;;;;;9.87;73.21;102750.72;5054650;28;20036;-62
2023/05/27 04:23:33;;;;;;;14.63;4.45;;;;;;;9.96;73.62;102749.38;5053138;28;20028;-62
2023/05/27 04:25:59;;;;;;;17.13;4.68;;;;;;;9.94;73.53;102750.19;5034717;28;20494;-63
2023/05/27 04:28:24;;;;;;;12.93;4.72;;;;;;;9.92;73.14;102747.44;5034477;28;20057;-62
2023/05/27 04:30:50;;;;;;;16.98;5.00;;;;;;;9.88;73.88;102737.59;5034414;28;20404;-62
2023/05/27 04:33:16;;;;;;;12.85;4.32;;;;;;;9.93;73.65;102749.25;5034504;28;20088;-62
2023/05/27 04:35:43;;;;;;;14.90;4.68;;;;;;;9.97;73.30;102742.38;5034475;28;20491;-62
2023/05/27 04:38:10;;;;;;;16.60;5.20;;;;;;;10.06;73.34;102744.50;5034686;28;20128;-62
2023/05/27 04:40:36;;;;;;;16.60;5.10;;;;;;;10.01;73.54;102733.75;5016762;28;20037;-62
2023/05/27 04:43:01;;;;;;;18.00;5.30;;;;;;;10.00;73.83;102730.19;5034259;28;20022;-62
2023/05/27 04:45:29;;;;;;;16.40;4.80;;;;;;;10.10;73.86;102734.13;5034218;28;20545;-63
2023/05/27 04:47:55;;;;;;;15.02;5.00;;;;;;;10.14;73.57;102736.06;5034393;28;20462;-62
2023/05/27 04:50:20;;;;;;;20.67;5.15;;;;;;;10.17;73.88;102740.59;5034145;28;20498;-62
2023/05/27 04:52:46;;;;;;;16.63;4.80;;;;;;;10.22;73.60;102732.00;5034169;28;20030;-62
2023/05/27 04:55:11;;;;;;;18.65;5.20;;;;;;;10.23;73.59;102731.16;5016303;28;20030;-62
2023/05/27 04:57:40;;;;;;;17.80;5.25;;;;;;;10.30;73.64;102726.19;5015483;28;20117;-62
2023/05/27 05:02:34;;;;;;;16.73;5.05;;;;;;;10.49;73.66;102723.47;5033928;28;20116;-62
2023/05/27 05:05:08;;;;;;;13.32;4.80;;;;;;;10.63;73.11;102722.31;5033921;28;20593;-62
2023/05/27 05:07:37;;;;;;;21.45;5.00;;;;;;;10.72;73.15;102722.69;5033839;28;20467;-61
2023/05/27 05:10:07;;;;;;;15.65;4.95;;;;;;;10.85;73.23;102721.41;5033780;28;20022;-62
2023/05/27 05:12:32;;;;;;;13.05;4.50;;;;;;;10.94;72.93;102726.19;5033657;28;20037;-62
2023/05/27 05:14:58;;;;;;;17.67;4.72;;;;;;;10.95;72.25;102725.31;5033857;28;20029;-62
2023/05/27 05:17:24;;;;;;;18.95;4.82;;;;;;;11.03;72.51;102719.50;5033456;28;20018;-62
2023/05/27 05:19:51;;;;;;;13.07;4.88;;;;;;;11.11;72.66;102727.72;5033915;28;20037;-61
2023/05/27 05:22:18;;;;;;;16.50;5.10;;;;;;;11.21;72.35;102723.69;5033583;28;20021;-61
2023/05/27 05:24:46;;;;;;;17.88;5.13;;;;;;;11.27;71.62;102730.13;5033518;28;20026;-62
2023/05/27 05:27:11;;;;;;;15.38;5.10;;;;;;;11.34;71.82;102715.38;5033461;28;20115;-62
2023/05/27 05:29:37;;;;;;;16.77;5.13;;;;;;;11.48;70.90;102723.84;5033231;28;20081;-61
2023/05/27 05:32:03;;;;;;;15.18;5.22;;;;;;;11.58;70.99;102723.31;5033734;28;20038;-62
2023/05/27 05:34:29;;;;;;;20.25;5.53;;;;;;;11.70;70.46;102715.84;5033734;28;20026;-62
2023/05/27 05:36:54;;;;;;;16.77;5.32;;;;;;;11.82;69.98;102725.97;5033393;28;20537;-62
2023/05/27 05:39:22;;;;;;;17.45;5.03;;;;;;;11.90;69.13;102723.59;5033346;28;20059;-62
2023/05/27 05:41:48;;;;;;;18.90;5.47;;;;;;;12.02;69.50;102722.28;5033508;28;20033;-62
2023/05/27 05:44:15;;;;;;;15.48;5.80;;;;;;;12.10;69.22;102719.91;5033351;28;20544;-62
2023/05/27 05:46:41;;;;;;;15.80;5.25;;;;;;;12.24;68.05;102725.69;5033245;28;20026;-62
2023/05/27 05:49:06;;;;;;;18.40;5.40;;;;;;;12.42;67.33;102718.38;5033199;28;20036;-61
2023/05/27 05:51:32;;;;;;;19.77;5.65;;;;;;;12.58;66.96;102711.78;5033162;28;20036;-62
2023/05/27 05:53:58;;;;;;;11.27;4.78;;;;;;;12.69;66.36;102714.81;5033195;28;20032;-62
2023/05/27 05:56:23;;;;;;;23.80;5.97;;;;;;;12.70;66.36;102713.94;5033067;28;20434;-62
2023/05/27 05:58:49;;;;;;;19.08;5.43;;;;;;;12.81;65.77;102711.66;5032551;28;20115;-62
2023/05/27 06:01:15;;;;;;;20.13;5.53;;;;;;;12.93;66.17;102709.34;5015425;28;20040;-62
2023/05/27 06:03:41;;;;;;;17.05;5.22;;;;;;;13.00;65.45;102692.78;5033302;28;20398;-61
2023/05/27 06:06:06;;;;;;;14.60;5.35;;;;;;;13.16;65.81;102707.41;5033059;28;20467;-61
2023/05/27 06:08:32;;;;;;;17.65;5.32;;;;;;;13.31;64.03;102697.28;5032976;28;20053;-61
2023/05/27 06:10:57;;;;;;;15.98;5.18;;;;;;;13.40;63.71;102700.19;5032872;28;20430;-61
2023/05/27 06:13:23;;;;;;;11.23;5.10;;;;;;;13.49;63.45;102695.16;5032844;28;20117;-62
2023/05/27 06:15:48;;;;;;;17.92;5.30;;;;;;;13.63;63.22;102699.97;5033148;28;20487;-62
2023/05/27 06:18:14;;;;;;;14.18;5.40;;;;;;;13.78;63.25;102695.94;5032857;28;20547;-61
2023/05/27 06:20:39;;;;;;;21.83;5.68;;;;;;;13.99;62.33;102686.75;5032678;28;20044;-61
2023/05/27 06:23:06;;;;;;;17.02;5.68;;;;;;;14.19;61.63;102696.16;5032742;28;20029;-62
2023/05/27 06:25:32;;;;;;;15.95;5.53;;;;;;;14.44;61.23;102691.47;5032958;28;20108;-62
2023/05/27 06:27:57;;;;;;;19.83;5.82;;;;;;;14.52;60.86;102687.25;5032603;28;20077;-61
2023/05/27 06:30:23;;;;;;;17.08;5.22;;;;;;;14.61;60.07;102686.56;5032376;28;20033;-62
2023/05/27 06:32:48;;;;;;;17.17;5.30;;;;;;;14.75;60.07;102680.69;5032669;28;20022;-62
2023/05/27 06:35:13;;;;;;;17.70;5.75;;;;;;;14.86;58.88;102696.94;5032652;28;20025;-62
2023/05/27 06:37:39;;;;;;;13.73;5.20;;;;;;;15.02;58.83;102683.06;5032625;28;20483;-61
2023/05/27 06:40:05;;;;;;;15.73;5.30;;;;;;;15.23;58.34;102681.72;5032685;28;20402;-62
2023/05/27 06:42:30;;;;;;;17.83;6.07;;;;;;;15.39;58.24;102674.97;5032804;28;20116;-62
2023/05/27 06:44:56;;;;;;;24.73;6.18;;;;;;;15.50;56.83;102679.66;5032544;28;20030;-62
2023/05/27 06:47:21;;;;;;;17.73;5.47;;;;;;;15.47;56.50;102676.91;5014806;28;20028;-62
2023/05/27 06:49:46;;;;;;;19.15;5.82;;;;;;;15.54;56.50;102680.59;5032439;28;20087;-62
2023/05/27 06:52:12;;;;;;;16.67;5.72;;;;;;;15.66;56.32;102683.53;5032507;28;20033;-62
2023/05/27 06:54:37;;;;;;;20.27;6.10;;;;;;;15.83;56.35;102672.28;5032902;28;20100;-62
2023/05/27 06:57:03;;;;;;;18.73;6.28;;;;;;;15.92;56.02;102676.00;5032625;28;20493;-62
2023/05/27 06:59:29;;;;;;;14.93;5.38;;;;;;;15.97;55.82;102673.41;5032023;28;20056;-61
2023/05/27 07:01:56;;;;;;;16.50;5.22;;;;;;;16.20;55.22;102658.72;5015191;28;20030;-62
2023/05/27 07:04:21;;;;;;;16.05;5.97;;;;;;;16.37;54.53;102675.00;5032427;28;20494;-61
2023/05/27 07:06:47;;;;;;;16.13;6.10;;;;;;;16.48;53.99;102664.50;5032276;28;20034;-62
2023/05/27 07:09:13;;;;;;;20.67;6.32;;;;;;;16.65;54.00;102665.63;5032335;28;20025;-62
2023/05/27 07:11:40;;;;;;;15.68;6.20;;;;;;;16.76;53.35;102655.16;5032605;28;20025;-62
2023/05/27 07:14:05;;;;;;;24.48;6.28;;;;;;;16.83;52.95;102651.72;5014527;28;20036;-62
2023/05/27 07:16:30;;;;;;;19.45;5.95;;;;;;;16.94;53.20;102659.88;5014590;28;20390;-62
2023/05/27 07:18:56;;;;;;;17.33;6.20;;;;;;;17.11;52.26;102662.75;5032318;28;20108;-62
2023/05/27 07:21:21;;;;;;;21.35;6.28;;;;;;;17.27;51.59;102654.94;5033222;28;20029;-62
2023/05/27 07:23:47;;;;;;;15.13;6.18;;;;;;;17.36;51.69;102659.50;5035884;28;20022;-62
2023/05/27 07:26:12;;;;;;;18.75;5.80;;;;;;;17.40;51.44;102664.00;5035809;28;20025;-62
2023/05/27 07:28:37;;;;;;;17.63;5.80;;;;;;;17.68;51.28;102656.28;5035705;28;20554;-62
2023/05/27 07:31:04;;;;;;;18.73;6.10;;;;;;;17.84;51.75;102654.69;5035503;28;20033;-62
2023/05/27 07:33:30;;;;;;;17.00;5.75;;;;;;;17.99;50.32;102662.88;5035627;28;20029;-62
2023/05/27 07:35:55;;;;;;;18.38;5.68;;;;;;;18.08;49.73;102659.41;5035934;28;20032;-62
2023/05/27 07:38:21;;;;;;;19.67;6.22;;;;;;;18.23;49.77;102649.69;5035841;28;20029;-62
2023/05/27 07:40:46;;;;;;;17.17;6.10;;;;;;;18.36;48.84;102665.84;5035609;28;20041;-63
2023/05/27 07:43:11;;;;;;;19.05;6.32;;;;;;;18.41;48.45;102648.03;5035582;28;20030;-62
2023/05/27 07:45:37;;;;;;;20.65;6.35;;;;;;;18.64;48.14;102643.75;5035429;28;20022;-62
2023/05/27 07:48:02;;;;;;;21.05;6.07;;;;;;;18.81;47.32;102643.88;5035469;28;20028;-62
2023/05/27 07:50:28;;;;;;;32.67;11.38;;;;;;;18.90;47.10;102643.03;5035298;28;20383;-62
2023/05/27 07:52:53;;;;;;;15.07;5.85;;;;;;;18.82;47.42;102642.09;5035567;28;20383;-62
2023/05/27 07:55:18;;;;;;;21.02;6.57;;;;;;;19.12;46.97;102627.94;5035322;28;20439;-62
2023/05/27 07:57:44;;;;;;;23.63;6.68;;;;;;;19.31;46.69;102628.88;5035239;28;20033;-62
2023/05/27 08:00:10;;;;;;;19.80;6.40;;;;;;;19.39;45.93;102638.75;5034753;28;20131;-62
2023/05/27 08:02:35;;;;;;;17.75;6.18;;;;;;;19.46;45.92;102624.47;5035275;28;20026;-62
2023/05/27 08:05:03;;;;;;;19.30;6.53;;;;;;;19.62;46.04;102619.19;5035129;28;20037;-62
2023/05/27 08:07:29;;;;;;;19.58;6.25;;;;;;;19.75;45.69;102616.50;5035075;28;20029;-62
2023/05/27 08:09:55;;;;;;;17.73;6.00;;;;;;;20.00;45.31;102628.16;5035020;28;20029;-61
2023/05/27 08:12:20;;;;;;;17.27;6.60;;;;;;;20.23;44.22;102614.72;5034898;28;20021;-62
2023/05/27 08:14:46;;;;;;;21.17;5.88;;;;;;;20.40;44.01;102611.13;5035206;28;20028;-62
2023/05/27 08:17:11;;;;;;;17.52;6.47;;;;;;;20.41;43.67;102608.41;5034809;28;20022;-62
2023/05/27 08:19:36;;;;;;;15.30;5.75;;;;;;;20.64;43.34;102610.19;5035110;28;20478;-62
2023/05/27 08:22:03;;;;;;;17.38;6.40;;;;;;;20.72;43.06;102603.00;5034759;28;20388;-62
2023/05/27 08:24:31;;;;;;;25.73;6.82;;;;;;;20.62;44.08;102594.09;5034845;28;20025;-61
2023/05/27 08:26:57;;;;;;;17.60;6.07;;;;;;;20.72;42.71;102595.81;5034755;28;20152;-62
2023/05/27 08:29:25;;;;;;;14.68;6.05;;;;;;;20.80;42.56;102589.53;5034393;28;20150;-61
2023/05/27 08:31:53;;;;;;;17.95;6.40;;;;;;;20.86;42.98;102590.44;5034705;28;20061;-63
2023/05/27 08:34:18;;;;;;;14.68;5.82;;;;;;;21.06;41.47;102576.88;5034650;28;20032;-62
2023/05/27 08:36:43;;;;;;;21.13;7.88;;;;;;;21.20;42.70;102577.72;5034601;28;20029;-62
2023/05/27 08:39:09;;;;;;;14.60;5.82;;;;;;;21.39;40.33;102566.88;5034488;28;20065;-62
2023/05/27 08:41:36;;;;;;;16.90;6.20;;;;;;;21.63;41.59;102569.38;5034298;28;20056;-62
2023/05/27 08:44:02;;;;;;;18.58;6.07;;;;;;;21.81;41.40;102551.31;5034348;28;20487;-62
2023/05/27 08:46:28;;;;;;;19.33;6.47;;;;;;;22.26;40.59;102566.13;5034252;28;20037;-62
2023/05/27 08:48:55;;;;;;;16.92;6.25;;;;;;;22.38;40.10;102557.03;5034280;28;20056;-63
2023/05/27 08:51:21;;;;;;;20.70;6.63;;;;;;;22.46;40.08;102555.16;5034183;28;20112;-64
2023/05/27 08:53:48;;;;;;;20.10;6.78;;;;;;;22.57;39.00;102557.72;5034255;28;20049;-62
2023/05/27 08:56:18;;;;;;;21.90;6.40;;;;;;;22.38;39.66;102560.63;5034392;28;20030;-62
2023/05/27 08:58:44;;;;;;;19.10;6.57;;;;;;;22.38;39.71;102555.25;5033708;28;20084;-62
2023/05/27 09:01:09;;;;;;;19.25;6.65;;;;;;;22.22;39.67;102548.22;5016526;28;20060;-62
2023/05/27 09:03:35;;;;;;;17.17;6.45;;;;;;;22.06;39.94;102549.28;5033964;28;20451;-62
2023/05/27 09:06:03;;;;;;;19.65;6.65;;;;;;;22.28;38.85;102552.69;5034156;28;20071;-62
2023/05/27 09:08:29;;;;;;;19.77;6.13;;;;;;;22.38;38.79;102547.16;5033876;28;20025;-62
2023/05/27 09:10:55;;;;;;;18.65;6.50;;;;;;;22.66;38.86;102544.16;5033416;28;20029;-63
2023/05/27 09:13:30;;;;;;;17.25;6.15;;;;;;;22.98;37.96;102536.56;5033764;28;20060;-62
2023/05/27 09:16:04;;;;;;;20.98;7.05;;;;;;;23.13;37.49;102524.66;5033822;28;20037;-63
2023/05/27 09:18:31;;;;;;;17.25;6.75;;;;;;;23.26;36.67;102528.06;5033988;28;20057;-63
2023/05/27 09:20:57;;;;;;;20.45;6.38;;;;;;;23.36;37.30;102524.31;5033714;28;20025;-62
2023/05/27 09:23:22;;;;;;;18.25;6.15;;;;;;;23.55;36.85;102521.31;5033688;28;20018;-62
2023/05/27 09:25:49;;;;;;;17.20;6.45;;;;;;;23.46;36.09;102527.75;5033687;28;20025;-62
2023/05/27 09:28:25;;;;;;;16.00;6.00;;;;;;;23.64;36.76;102516.66;5033659;28;20053;-63
2023/05/27 09:31:04;;;;;;;18.90;6.15;;;;;;;23.58;36.94;102508.66;5033573;28;20513;-62
2023/05/27 09:33:32;;;;;;;20.05;6.35;;;;;;;23.80;35.92;102513.72;5033378;28;20029;-63
2023/05/27 09:35:59;;;;;;;16.15;6.22;;;;;;;23.85;35.54;102514.50;5033508;28;20033;-62
2023/05/27 09:38:27;;;;;;;17.45;6.40;;;;;;;24.10;35.98;102506.84;5033448;28;20040;-62
2023/05/27 09:40:53;;;;;;;18.45;6.72;;;;;;;24.32;35.34;102500.09;5015618;28;20033;-63
2023/05/27 09:43:19;;;;;;;13.98;5.68;;;;;;;24.60;34.83;102508.56;5032937;28;20398;-63
2023/05/27 09:45:45;;;;;;;18.88;5.97;;;;;;;24.46;34.18;102500.75;5032697;28;20033;-63
2023/05/27 09:48:15;;;;;;;18.48;6.10;;;;;;;24.72;33.22;102496.59;5033151;28;20032;-63
2023/05/27 09:50:41;;;;;;;19.15;6.15;;;;;;;24.69;34.44;102496.66;5033024;28;20037;-63
2023/05/27 09:53:08;;;;;;;14.15;5.65;;;;;;;24.99;33.72;102495.09;5033101;28;20360;-63
2023/05/27 09:55:33;;;;;;;16.02;5.80;;;;;;;24.97;32.86;102495.13;5033416;28;20383;-63
2023/05/27 09:58:00;;;;;;;19.83;6.70;;;;;;;24.68;33.53;102489.50;5032969;28;20021;-62
2023/05/27 10:00:27;;;;;;;17.17;6.55;;;;;;;24.55;35.06;102485.28;5032905;28;20140;-62
2023/05/27 10:02:53;;;;;;;19.70;5.97;;;;;;;24.92;34.40;102485.31;5032987;28;20025;-63
2023/05/27 10:05:20;;;;;;;19.25;6.32;;;;;;;25.03;34.68;102477.88;5033067;28;20041;-63
2023/05/27 10:07:46;;;;;;;16.77;6.50;;;;;;;25.27;32.62;102478.22;5032939;28;20030;-62
2023/05/27 10:10:17;;;;;;;17.48;6.38;;;;;;;25.52;32.39;102473.06;5032852;28;20022;-63
2023/05/27 10:12:57;;;;;;;18.20;5.60;;;;;;;25.73;33.69;102467.09;5032790;28;20032;-63
2023/05/27 10:15:25;;;;;;;18.65;5.70;;;;;;;25.99;31.65;102474.53;5032926;28;20036;-61
2023/05/27 10:17:56;;;;;;;19.30;6.20;;;;;;;26.14;31.92;102468.72;5032984;28;20029;-60
2023/05/27 10:20:26;;;;;;;17.63;5.97;;;;;;;25.92;32.67;102471.13;5032877;28;20036;-61
2023/05/27 10:22:51;;;;;;;19.05;6.40;;;;;;;25.79;32.28;102468.81;5032780;28;20311;-61
2023/05/27 10:25:17;;;;;;;20.77;6.00;;;;;;;25.34;32.14;102458.19;5032827;28;20075;-61
2023/05/27 10:27:47;;;;;;;18.88;5.90;;;;;;;25.05;33.06;102451.66;5032935;28;20029;-60
2023/05/27 10:30:14;;;;;;;15.80;6.15;;;;;;;24.99;33.84;102446.41;5032802;28;20026;-60
2023/05/27 10:32:58;;;;;;;15.90;6.20;;;;;;;25.07;35.00;102459.75;5015165;28;20507;-60
2023/05/27 10:35:27;;;;;;;20.23;6.70;;;;;;;24.89;33.17;102456.56;5032812;28;20091;-61
2023/05/27 10:37:53;;;;;;;57.20;30.73;;;;;;;24.84;33.21;102446.75;5032731;28;20026;-62
2023/05/27 10:40:25;;;;;;;62.75;33.35;;;;;;;24.70;33.17;102447.06;5032570;28;20033;-61
2023/05/27 10:43:02;;;;;;;22.67;9.77;;;;;;;24.44;34.06;102444.94;5032676;28;20095;-61
2023/05/27 10:45:34;;;;;;;26.42;9.80;;;;;;;24.30;34.27;102447.03;5032909;28;20037;-61
2023/05/27 10:48:00;;;;;;;48.72;16.75;;;;;;;24.40;33.46;102446.81;5032512;28;20360;-61
2023/05/27 10:50:34;;;;;;;31.60;9.63;;;;;;;24.49;34.11;102438.50;5032683;28;20036;-60
2023/05/27 10:53:01;;;;;;;72.38;26.23;;;;;;;24.57;33.21;102443.75;5032558;28;20037;-60
2023/05/27 10:55:27;;;;;;;25.80;9.20;;;;;;;24.72;33.09;102439.84;5032948;28;20069;-61
2023/05/27 10:57:52;;;;;;;26.75;9.55;;;;;;;24.93;32.34;102424.94;5035523;28;20117;-61
2023/05/27 11:00:20;;;;;;;15.60;5.72;;;;;;;25.54;30.97;102422.50;5035956;28;20128;-62
2023/05/27 11:02:46;;;;;;;21.98;5.53;;;;;;;25.91;30.67;102423.31;5036430;28;20030;-63
2023/05/27 11:05:14;;;;;;;21.85;5.97;;;;;;;25.88;31.13;102417.97;5036126;28;20021;-62
2023/05/27 11:07:40;;;;;;;18.20;5.68;;;;;;;26.40;31.17;102413.72;5018173;28;20041;-63
2023/05/27 11:10:07;;;;;;;35.35;13.23;;;;;;;26.45;29.21;102413.63;5036039;28;20021;-64
2023/05/27 11:12:33;;;;;;;20.67;6.07;;;;;;;26.70;27.65;102403.78;5035938;28;20030;-63
2023/05/27 11:14:58;;;;;;;16.33;5.50;;;;;;;26.89;27.66;102406.78;5035966;28;20371;-62
2023/05/27 11:17:25;;;;;;;14.32;4.93;;;;;;;27.19;26.94;102395.88;5035978;28;20048;-63